sensor_id;sensor_type;location;lat;lon;timestamp;pressure;altitude;pressure_sealevel;temperature;humidity
42519;BME280;28147;47.520;18.920;2023-03-25T00:00:15;97550.03;;;18.66;43.36
42519;BME280;28147;47.520;18.920;2023-03-25T00:02:47;97547.56;;;18.56;43.68
42519;BME280;28147;47.520;18.920;2023-03-25T00:05:14;97546.03;;;18.41;43.93
42519;BME280;28147;47.520;18.920;2023-03-25T00:07:41;97552.06;;;18.38;44.18
42519;BME280;28147;47.520;18.920;2023-03-25T00:10:07;97551.50;;;18.50;44.38
42519;BME280;28147;47.520;18.920;2023-03-25T00:12:33;97547.75;;;18.59;43.91
42519;BME280;28147;47.520;18.920;2023-03-25T00:14:59;97539.94;;;18.49;44.48
42519;BME280;28147;47.520;18.920;2023-03-25T00:17:25;97541.94;;;18.43;44.46
42519;BME280;28147;47.520;18.920;2023-03-25T00:19:53;97548.91;;;18.44;44.84
42519;BME280;28147;47.520;18.920;2023-03-25T00:22:20;97541.31;;;18.24;45.17
42519;BME280;28147;47.520;18.920;2023-03-25T00:24:46;97553.78;;;18.34;45.01
42519;BME280;28147;47.520;18.920;2023-03-25T00:27:12;97559.50;;;18.41;44.94
42519;BME280;28147;47.520;18.920;2023-03-25T00:29:39;97555.19;;;18.17;45.62
42519;BME280;28147;47.520;18.920;2023-03-25T00:32:05;97552.28;;;18.28;45.54
42519;BME280;28147;47.520;18.920;2023-03-25T00:34:31;97553.59;;;18.53;45.25
42519;BME280;28147;47.520;18.920;2023-03-25T00:37:00;97551.97;;;18.52;45.29
42519;BME280;28147;47.520;18.920;2023-03-25T00:39:27;97555.84;;;18.37;45.42
42519;BME280;28147;47.520;18.920;2023-03-25T00:41:52;97552.84;;;18.38;45.61
42519;BME280;28147;47.520;18.920;2023-03-25T00:44:18;97554.03;;;18.46;45.80
42519;BME280;28147;47.520;18.920;2023-03-25T00:46:43;97543.94;;;18.15;46.69
42519;BME280;28147;47.520;18.920;2023-03-25T00:49:10;97555.66;;;17.83;47.43
42519;BME280;28147;47.520;18.920;2023-03-25T00:51:36;97547.63;;;18.06;47.15
42519;BME280;28147;47.520;18.920;2023-03-25T00:54:02;97557.34;;;17.93;48.08
42519;BME280;28147;47.520;18.920;2023-03-25T00:56:29;97552.94;;;18.11;47.63
42519;BME280;28147;47.520;18.920;2023-03-25T00:58:56;97553.09;;;17.78;48.67
42519;BME280;28147;47.520;18.920;2023-03-25T01:01:24;97550.94;;;18.03;48.59
42519;BME280;28147;47.520;18.920;2023-03-25T01:03:54;97534.00;;;17.74;49.10
42519;BME280;28147;47.520;18.920;2023-03-25T01:06:34;97547.38;;;17.80;49.78
42519;BME280;28147;47.520;18.920;2023-03-25T01:09:03;97541.22;;;17.79;49.79
42519;BME280;28147;47.520;18.920;2023-03-25T01:11:31;97533.81;;;17.57;50.75
42519;BME280;28147;47.520;18.920;2023-03-25T01:13:59;97542.69;;;17.58;51.24
42519;BME280;28147;47.520;18.920;2023-03-25T01:16:26;97543.19;;;17.73;50.94
42519;BME280;28147;47.520;18.920;2023-03-25T01:18:54;97548.19;;;17.52;51.61
42519;BME280;28147;47.520;18.920;2023-03-25T01:21:20;97538.44;;;17.43;52.11
42519;BME280;28147;47.520;18.920;2023-03-25T01:23:45;97541.16;;;16.96;54.46
42519;BME280;28147;47.520;18.920;2023-03-25T01:26:11;97549.84;;;17.35;53.74
42519;BME280;28147;47.520;18.920;2023-03-25T01:28:43;97546.69;;;17.46;53.98
42519;BME280;28147;47.520;18.920;2023-03-25T01:31:10;97552.91;;;17.00;55.89
42519;BME280;28147;47.520;18.920;2023-03-25T01:33:36;97553.50;;;16.97;56.34
42519;BME280;28147;47.520;18.920;2023-03-25T01:36:02;97550.75;;;17.16;55.96
42519;BME280;28147;47.520;18.920;2023-03-25T01:38:28;97553.31;;;16.94;57.27
42519;BME280;28147;47.520;18.920;2023-03-25T01:40:55;97552.59;;;16.69;57.61
42519;BME280;28147;47.520;18.920;2023-03-25T01:43:22;97554.00;;;16.67;57.69
42519;BME280;28147;47.520;18.920;2023-03-25T01:45:48;97557.97;;;16.69;57.81
42519;BME280;28147;47.520;18.920;2023-03-25T01:48:21;97562.34;;;16.65;58.38
42519;BME280;28147;47.520;18.920;2023-03-25T01:50:56;97559.88;;;16.69;58.25
42519;BME280;28147;47.520;18.920;2023-03-25T01:53:23;97568.88;;;16.78;57.71
42519;BME280;28147;47.520;18.920;2023-03-25T01:55:50;97566.06;;;16.50;58.65
42519;BME280;28147;47.520;18.920;2023-03-25T01:58:17;97572.19;;;16.89;58.13
42519;BME280;28147;47.520;18.920;2023-03-25T02:00:44;97578.31;;;16.94;57.79
42519;BME280;28147;47.520;18.920;2023-03-25T02:03:12;97569.81;;;16.68;58.50
42519;BME280;28147;47.520;18.920;2023-03-25T02:05:45;97557.28;;;16.45;59.31
42519;BME280;28147;47.520;18.920;2023-03-25T02:08:13;97578.56;;;16.79;58.94
42519;BME280;28147;47.520;18.920;2023-03-25T02:10:41;97575.22;;;16.30;60.61
42519;BME280;28147;47.520;18.920;2023-03-25T02:13:09;97571.31;;;16.23;61.19
42519;BME280;28147;47.520;18.920;2023-03-25T02:22:11;97557.72;;;15.76;64.50
42519;BME280;28147;47.520;18.920;2023-03-25T02:27:59;97557.31;;;16.07;64.03
42519;BME280;28147;47.520;18.920;2023-03-25T02:38:50;97548.34;;;15.93;64.47
42519;BME280;28147;47.520;18.920;2023-03-25T02:41:29;97542.63;;;15.80;64.57
42519;BME280;28147;47.520;18.920;2023-03-25T02:44:14;97551.56;;;16.14;63.70
42519;BME280;28147;47.520;18.920;2023-03-25T02:46:45;97554.81;;;15.92;63.43
42519;BME280;28147;47.520;18.920;2023-03-25T02:49:17;97547.25;;;15.94;63.90
42519;BME280;28147;47.520;18.920;2023-03-25T02:51:50;97550.91;;;15.84;63.25
42519;BME280;28147;47.520;18.920;2023-03-25T02:54:18;97542.47;;;15.91;63.04
42519;BME280;28147;47.520;18.920;2023-03-25T02:56:46;97533.66;;;15.66;63.97
42519;BME280;28147;47.520;18.920;2023-03-25T02:59:14;97549.47;;;15.44;65.11
42519;BME280;28147;47.520;18.920;2023-03-25T03:01:41;97547.34;;;15.65;64.65
42519;BME280;28147;47.520;18.920;2023-03-25T03:04:08;97555.06;;;15.23;66.21
42519;BME280;28147;47.520;18.920;2023-03-25T03:06:38;97555.59;;;15.49;64.90
42519;BME280;28147;47.520;18.920;2023-03-25T03:09:16;97565.22;;;15.50;65.43
42519;BME280;28147;47.520;18.920;2023-03-25T03:17:17;97557.59;;;15.09;67.78
42519;BME280;28147;47.520;18.920;2023-03-25T03:27:28;97581.88;;;15.23;68.62
42519;BME280;28147;47.520;18.920;2023-03-25T03:30:17;97577.41;;;15.14;68.59
42519;BME280;28147;47.520;18.920;2023-03-25T03:32:53;97573.03;;;14.94;69.27
42519;BME280;28147;47.520;18.920;2023-03-25T03:35:50;97572.41;;;15.02;68.84
42519;BME280;28147;47.520;18.920;2023-03-25T03:38:24;97572.59;;;14.81;69.58
42519;BME280;28147;47.520;18.920;2023-03-25T03:41:03;97577.69;;;14.83;69.82
42519;BME280;28147;47.520;18.920;2023-03-25T03:43:32;97583.84;;;15.13;69.07
42519;BME280;28147;47.520;18.920;2023-03-25T03:46:04;97573.28;;;14.97;68.89
42519;BME280;28147;47.520;18.920;2023-03-25T03:48:39;97586.38;;;14.99;68.47
42519;BME280;28147;47.520;18.920;2023-03-25T03:51:18;97588.25;;;15.27;67.68
42519;BME280;28147;47.520;18.920;2023-03-25T03:53:59;97595.03;;;15.20;68.33
42519;BME280;28147;47.520;18.920;2023-03-25T03:56:32;97604.75;;;15.40;67.84
42519;BME280;28147;47.520;18.920;2023-03-25T03:59:04;97604.38;;;15.22;68.16
42519;BME280;28147;47.520;18.920;2023-03-25T04:01:44;97614.53;;;14.96;69.01
42519;BME280;28147;47.520;18.920;2023-03-25T04:04:21;97614.44;;;15.06;68.77
42519;BME280;28147;47.520;18.920;2023-03-25T04:06:56;97605.63;;;15.06;68.65
42519;BME280;28147;47.520;18.920;2023-03-25T04:12:23;97621.41;;;15.07;69.51
42519;BME280;28147;47.520;18.920;2023-03-25T04:14:49;97619.25;;;15.09;68.95
42519;BME280;28147;47.520;18.920;2023-03-25T04:17:15;97619.25;;;15.09;68.77
42519;BME280;28147;47.520;18.920;2023-03-25T04:19:41;97623.94;;;14.94;68.82
42519;BME280;28147;47.520;18.920;2023-03-25T04:22:14;97618.38;;;15.19;69.01
42519;BME280;28147;47.520;18.920;2023-03-25T04:24:41;97628.09;;;15.10;69.21
42519;BME280;28147;47.520;18.920;2023-03-25T04:27:08;97625.84;;;14.93;68.89
42519;BME280;28147;47.520;18.920;2023-03-25T04:29:38;97636.06;;;15.20;68.24
42519;BME280;28147;47.520;18.920;2023-03-25T04:32:05;97634.88;;;15.02;68.36
42519;BME280;28147;47.520;18.920;2023-03-25T04:34:30;97636.25;;;14.95;68.88
42519;BME280;28147;47.520;18.920;2023-03-25T04:36:56;97640.63;;;15.20;68.02
42519;BME280;28147;47.520;18.920;2023-03-25T04:39:22;97639.00;;;15.19;67.90
42519;BME280;28147;47.520;18.920;2023-03-25T04:41:49;97634.13;;;15.26;66.43
42519;BME280;28147;47.520;18.920;2023-03-25T04:44:15;97641.25;;;15.12;67.24
42519;BME280;28147;47.520;18.920;2023-03-25T04:46:41;97646.06;;;14.75;68.08
42519;BME280;28147;47.520;18.920;2023-03-25T04:49:17;97644.34;;;14.90;67.15
42519;BME280;28147;47.520;18.920;2023-03-25T04:51:43;97653.81;;;15.11;67.41
42519;BME280;28147;47.520;18.920;2023-03-25T04:54:09;97656.31;;;15.02;66.77
42519;BME280;28147;47.520;18.920;2023-03-25T04:56:36;97654.66;;;15.06;67.30
42519;BME280;28147;47.520;18.920;2023-03-25T04:59:02;97652.41;;;15.19;66.82
42519;BME280;28147;47.520;18.920;2023-03-25T05:01:28;97655.75;;;15.05;67.00
42519;BME280;28147;47.520;18.920;2023-03-25T05:04:02;97651.47;;;15.04;66.85
42519;BME280;28147;47.520;18.920;2023-03-25T05:06:35;97656.00;;;15.09;66.23
42519;BME280;28147;47.520;18.920;2023-03-25T05:09:03;97655.69;;;14.81;67.32
42519;BME280;28147;47.520;18.920;2023-03-25T05:11:31;97657.25;;;14.82;67.36
42519;BME280;28147;47.520;18.920;2023-03-25T05:13:56;97663.59;;;14.97;66.39
42519;BME280;28147;47.520;18.920;2023-03-25T05:16:22;97670.19;;;15.09;66.55
42519;BME280;28147;47.520;18.920;2023-03-25T05:18:47;97673.72;;;15.05;65.96
42519;BME280;28147;47.520;18.920;2023-03-25T05:21:13;97678.31;;;14.99;66.18
42519;BME280;28147;47.520;18.920;2023-03-25T05:23:38;97688.47;;;15.02;65.88
42519;BME280;28147;47.520;18.920;2023-03-25T05:26:06;97680.44;;;15.02;65.70
42519;BME280;28147;47.520;18.920;2023-03-25T05:28:32;97671.03;;;15.05;65.76
42519;BME280;28147;47.520;18.920;2023-03-25T05:30:58;97668.53;;;15.14;65.55
42519;BME280;28147;47.520;18.920;2023-03-25T05:33:24;97680.00;;;15.24;64.65
42519;BME280;28147;47.520;18.920;2023-03-25T05:35:49;97681.34;;;15.22;65.04
42519;BME280;28147;47.520;18.920;2023-03-25T05:38:15;97669.25;;;15.24;65.24
42519;BME280;28147;47.520;18.920;2023-03-25T05:40:46;97679.50;;;14.83;66.50
42519;BME280;28147;47.520;18.920;2023-03-25T05:43:16;97682.47;;;14.76;65.33
42519;BME280;28147;47.520;18.920;2023-03-25T05:45:46;97681.19;;;14.74;65.68
42519;BME280;28147;47.520;18.920;2023-03-25T05:48:15;97680.16;;;14.65;66.28
42519;BME280;28147;47.520;18.920;2023-03-25T05:50:40;97679.69;;;14.52;65.84
42519;BME280;28147;47.520;18.920;2023-03-25T05:53:10;97681.53;;;14.57;65.08
42519;BME280;28147;47.520;18.920;2023-03-25T05:55:36;97689.00;;;15.39;63.44
42519;BME280;28147;47.520;18.920;2023-03-25T05:58:02;97680.34;;;15.42;62.40
42519;BME280;28147;47.520;18.920;2023-03-25T06:00:28;97686.16;;;15.25;62.02
42519;BME280;28147;47.520;18.920;2023-03-25T06:02:55;97694.28;;;15.15;62.49
42519;BME280;28147;47.520;18.920;2023-03-25T06:05:20;97687.22;;;14.90;62.37
42519;BME280;28147;47.520;18.920;2023-03-25T06:07:49;97698.84;;;14.75;63.27
42519;BME280;28147;47.520;18.920;2023-03-25T06:10:16;97700.09;;;14.88;63.07
42519;BME280;28147;47.520;18.920;2023-03-25T06:12:43;97702.16;;;15.01;63.60
42519;BME280;28147;47.520;18.920;2023-03-25T06:15:11;97698.41;;;15.02;64.02
42519;BME280;28147;47.520;18.920;2023-03-25T06:17:37;97695.75;;;14.97;64.30
42519;BME280;28147;47.520;18.920;2023-03-25T06:20:13;97694.31;;;15.09;64.23
42519;BME280;28147;47.520;18.920;2023-03-25T06:22:42;97691.19;;;14.97;62.93
42519;BME280;28147;47.520;18.920;2023-03-25T06:25:10;97700.66;;;14.84;63.30
42519;BME280;28147;47.520;18.920;2023-03-25T06:27:36;97697.97;;;14.84;62.54
42519;BME280;28147;47.520;18.920;2023-03-25T06:30:06;97701.31;;;15.05;62.45
42519;BME280;28147;47.520;18.920;2023-03-25T06:32:32;97705.25;;;14.79;63.06
42519;BME280;28147;47.520;18.920;2023-03-25T06:34:58;97704.84;;;15.01;62.19
42519;BME280;28147;47.520;18.920;2023-03-25T06:37:23;97702.88;;;14.77;63.03
42519;BME280;28147;47.520;18.920;2023-03-25T06:39:50;97710.69;;;15.08;62.30
42519;BME280;28147;47.520;18.920;2023-03-25T06:42:23;97711.16;;;15.15;61.31
42519;BME280;28147;47.520;18.920;2023-03-25T06:44:49;97718.38;;;15.49;60.48
42519;BME280;28147;47.520;18.920;2023-03-25T06:47:14;97722.63;;;15.55;60.57
42519;BME280;28147;47.520;18.920;2023-03-25T06:49:40;97726.66;;;15.52;60.80
42519;BME280;28147;47.520;18.920;2023-03-25T06:52:05;97721.59;;;15.51;61.16
42519;BME280;28147;47.520;18.920;2023-03-25T06:54:31;97715.19;;;15.47;62.35
42519;BME280;28147;47.520;18.920;2023-03-25T06:56:56;97717.56;;;15.82;61.68
42519;BME280;28147;47.520;18.920;2023-03-25T06:59:22;97722.94;;;15.82;60.78
42519;BME280;28147;47.520;18.920;2023-03-25T07:01:47;97718.25;;;15.93;61.95
42519;BME280;28147;47.520;18.920;2023-03-25T07:04:13;97726.38;;;15.88;60.76
42519;BME280;28147;47.520;18.920;2023-03-25T07:06:38;97718.75;;;15.71;61.74
42519;BME280;28147;47.520;18.920;2023-03-25T07:09:04;97732.53;;;16.13;60.34
42519;BME280;28147;47.520;18.920;2023-03-25T07:11:31;97728.81;;;16.57;60.11
42519;BME280;28147;47.520;18.920;2023-03-25T07:13:57;97731.00;;;16.30;59.70
42519;BME280;28147;47.520;18.920;2023-03-25T07:16:23;97735.84;;;16.28;59.85
42519;BME280;28147;47.520;18.920;2023-03-25T07:18:49;97737.97;;;16.32;58.86
42519;BME280;28147;47.520;18.920;2023-03-25T07:21:15;97736.25;;;16.41;59.61
42519;BME280;28147;47.520;18.920;2023-03-25T07:23:41;97740.50;;;16.23;60.35
42519;BME280;28147;47.520;18.920;2023-03-25T07:26:06;97735.63;;;16.49;58.83
42519;BME280;28147;47.520;18.920;2023-03-25T07:28:32;97738.19;;;16.35;58.67
42519;BME280;28147;47.520;18.920;2023-03-25T07:30:57;97738.81;;;16.51;57.85
42519;BME280;28147;47.520;18.920;2023-03-25T07:33:23;97741.19;;;16.34;57.79
42519;BME280;28147;47.520;18.920;2023-03-25T07:35:48;97739.94;;;16.26;58.08
42519;BME280;28147;47.520;18.920;2023-03-25T07:38:13;97733.06;;;16.39;57.72
42519;BME280;28147;47.520;18.920;2023-03-25T07:40:39;97732.06;;;16.53;56.94
42519;BME280;28147;47.520;18.920;2023-03-25T07:43:05;97729.78;;;16.85;56.27
42519;BME280;28147;47.520;18.920;2023-03-25T07:45:30;97728.03;;;17.32;55.45
42519;BME280;28147;47.520;18.920;2023-03-25T07:47:56;97737.28;;;17.58;54.65
42519;BME280;28147;47.520;18.920;2023-03-25T07:50:24;97725.69;;;17.90;53.48
42519;BME280;28147;47.520;18.920;2023-03-25T07:52:49;97731.91;;;18.18;53.24
42519;BME280;28147;47.520;18.920;2023-03-25T07:55:15;97732.44;;;17.74;53.41
42519;BME280;28147;47.520;18.920;2023-03-25T07:57:41;97714.72;;;17.87;52.50
42519;BME280;28147;47.520;18.920;2023-03-25T08:00:07;97736.69;;;18.49;50.99
42519;BME280;28147;47.520;18.920;2023-03-25T08:02:33;97734.16;;;18.80;51.28
42519;BME280;28147;47.520;18.920;2023-03-25T08:04:59;97742.13;;;18.85;50.23
42519;BME280;28147;47.520;18.920;2023-03-25T08:07:24;97737.63;;;18.94;51.14
42519;BME280;28147;47.520;18.920;2023-03-25T08:09:52;97735.41;;;18.96;50.21
42519;BME280;28147;47.520;18.920;2023-03-25T08:12:18;97736.47;;;18.73;49.46
42519;BME280;28147;47.520;18.920;2023-03-25T08:14:43;97733.56;;;17.87;51.62
42519;BME280;28147;47.520;18.920;2023-03-25T08:17:09;97737.56;;;19.08;48.42
42519;BME280;28147;47.520;18.920;2023-03-25T08:19:34;97728.19;;;18.83;48.40
42519;BME280;28147;47.520;18.920;2023-03-25T08:22:01;97730.41;;;19.26;47.06
42519;BME280;28147;47.520;18.920;2023-03-25T08:24:27;97728.41;;;19.09;46.88
42519;BME280;28147;47.520;18.920;2023-03-25T08:26:54;97744.94;;;19.39;46.69
42519;BME280;28147;47.520;18.920;2023-03-25T08:29:20;97726.94;;;19.71;47.13
42519;BME280;28147;47.520;18.920;2023-03-25T08:31:46;97731.25;;;20.51;45.16
42519;BME280;28147;47.520;18.920;2023-03-25T08:34:17;97732.28;;;21.07;43.89
42519;BME280;28147;47.520;18.920;2023-03-25T08:36:43;97729.25;;;21.26;43.45
42519;BME280;28147;47.520;18.920;2023-03-25T08:39:08;97720.34;;;21.00;42.73
42519;BME280;28147;47.520;18.920;2023-03-25T08:41:36;97722.94;;;21.86;42.33
42519;BME280;28147;47.520;18.920;2023-03-25T08:44:03;97716.06;;;21.33;42.73
42519;BME280;28147;47.520;18.920;2023-03-25T08:46:28;97722.56;;;20.89;40.84
42519;BME280;28147;47.520;18.920;2023-03-25T08:48:54;97722.88;;;21.31;41.63
42519;BME280;28147;47.520;18.920;2023-03-25T08:51:20;97709.81;;;20.81;42.37
42519;BME280;28147;47.520;18.920;2023-03-25T08:53:45;97720.66;;;21.42;41.98
42519;BME280;28147;47.520;18.920;2023-03-25T08:56:11;97711.97;;;21.74;40.76
42519;BME280;28147;47.520;18.920;2023-03-25T08:58:36;97707.81;;;22.53;40.72
42519;BME280;28147;47.520;18.920;2023-03-25T09:01:03;97711.06;;;22.47;38.97
42519;BME280;28147;47.520;18.920;2023-03-25T09:03:28;97701.38;;;21.52;40.18
42519;BME280;28147;47.520;18.920;2023-03-25T09:05:55;97703.69;;;21.79;41.32
42519;BME280;28147;47.520;18.920;2023-03-25T09:08:20;97708.88;;;21.93;41.96
42519;BME280;28147;47.520;18.920;2023-03-25T09:10:46;97706.78;;;22.96;39.41
42519;BME280;28147;47.520;18.920;2023-03-25T09:13:11;97712.59;;;22.56;38.21
42519;BME280;28147;47.520;18.920;2023-03-25T09:15:37;97714.38;;;22.23;39.63
42519;BME280;28147;47.520;18.920;2023-03-25T09:18:02;97710.94;;;22.43;38.96
42519;BME280;28147;47.520;18.920;2023-03-25T09:20:28;97709.84;;;21.42;40.48
42519;BME280;28147;47.520;18.920;2023-03-25T09:22:54;97724.47;;;20.97;40.55
42519;BME280;28147;47.520;18.920;2023-03-25T09:25:19;97717.53;;;21.78;39.45
42519;BME280;28147;47.520;18.920;2023-03-25T09:27:45;97716.06;;;21.89;39.28
42519;BME280;28147;47.520;18.920;2023-03-25T09:30:11;97715.72;;;21.99;40.13
42519;BME280;28147;47.520;18.920;2023-03-25T09:32:37;97718.84;;;20.59;42.12
42519;BME280;28147;47.520;18.920;2023-03-25T09:35:03;97713.81;;;21.35;40.70
42519;BME280;28147;47.520;18.920;2023-03-25T09:37:29;97716.06;;;21.89;39.10
42519;BME280;28147;47.520;18.920;2023-03-25T09:39:54;97722.41;;;21.11;39.63
42519;BME280;28147;47.520;18.920;2023-03-25T09:42:32;97694.69;;;20.62;40.96
42519;BME280;28147;47.520;18.920;2023-03-25T09:50:24;97731.16;;;22.75;37.49
42519;BME280;28147;47.520;18.920;2023-03-25T09:55:29;97726.78;;;22.62;37.61
42519;BME280;28147;47.520;18.920;2023-03-25T09:58:01;97731.31;;;22.11;38.93
42519;BME280;28147;47.520;18.920;2023-03-25T10:00:29;97728.31;;;21.22;39.35
42519;BME280;28147;47.520;18.920;2023-03-25T10:10:59;97746.84;;;19.83;41.53
42519;BME280;28147;47.520;18.920;2023-03-25T10:19:07;97736.25;;;19.96;42.55
42519;BME280;28147;47.520;18.920;2023-03-25T10:21:46;97720.09;;;19.73;43.29
42519;BME280;28147;47.520;18.920;2023-03-25T10:24:30;97738.03;;;19.69;43.64
42519;BME280;28147;47.520;18.920;2023-03-25T10:27:07;97737.41;;;19.27;43.94
42519;BME280;28147;47.520;18.920;2023-03-25T10:29:58;97731.13;;;18.95;44.10
42519;BME280;28147;47.520;18.920;2023-03-25T10:32:50;97740.59;;;19.07;44.26
42519;BME280;28147;47.520;18.920;2023-03-25T10:35:20;97741.28;;;18.76;44.61
42519;BME280;28147;47.520;18.920;2023-03-25T10:37:50;97740.97;;;19.14;43.64
42519;BME280;28147;47.520;18.920;2023-03-25T10:40:26;97743.91;;;18.90;43.48
42519;BME280;28147;47.520;18.920;2023-03-25T10:45:44;97746.84;;;19.83;40.33
42519;BME280;28147;47.520;18.920;2023-03-25T10:48:28;97732.88;;;19.81;41.13
42519;BME280;28147;47.520;18.920;2023-03-25T10:53:32;97745.09;;;19.34;41.13
42519;BME280;28147;47.520;18.920;2023-03-25T10:56:02;97738.09;;;19.33;41.84
42519;BME280;28147;47.520;18.920;2023-03-25T10:58:29;97744.22;;;19.02;42.05
42519;BME280;28147;47.520;18.920;2023-03-25T11:00:55;97736.84;;;18.66;42.07
42519;BME280;28147;47.520;18.920;2023-03-25T11:03:40;97754.03;;;18.84;42.49
42519;BME280;28147;47.520;18.920;2023-03-25T11:06:06;97757.19;;;19.00;42.14
42519;BME280;28147;47.520;18.920;2023-03-25T11:08:34;97744.75;;;18.90;42.54
42519;BME280;28147;47.520;18.920;2023-03-25T11:10:59;97750.03;;;19.18;42.06
42519;BME280;28147;47.520;18.920;2023-03-25T11:13:29;97755.69;;;19.53;41.77
42519;BME280;28147;47.520;18.920;2023-03-25T11:16:00;97752.75;;;20.16;40.61
42519;BME280;28147;47.520;18.920;2023-03-25T11:20:59;97743.94;;;20.11;38.77
42519;BME280;28147;47.520;18.920;2023-03-25T11:23:36;97751.78;;;19.59;37.80
42519;BME280;28147;47.520;18.920;2023-03-25T11:26:25;97753.31;;;18.92;38.94
42519;BME280;28147;47.520;18.920;2023-03-25T11:28:55;97746.31;;;18.91;39.27
42519;BME280;28147;47.520;18.920;2023-03-25T11:31:26;97756.94;;;18.74;39.29
42519;BME280;28147;47.520;18.920;2023-03-25T11:36:36;97757.84;;;18.28;40.04
42519;BME280;28147;47.520;18.920;2023-03-25T11:39:33;97757.03;;;18.14;40.91
42519;BME280;28147;47.520;18.920;2023-03-25T11:42:07;97749.25;;;18.12;40.36
42519;BME280;28147;47.520;18.920;2023-03-25T11:44:34;97755.75;;;18.39;40.04
42519;BME280;28147;47.520;18.920;2023-03-25T11:47:02;97763.41;;;17.90;40.88
42519;BME280;28147;47.520;18.920;2023-03-25T11:49:29;97765.53;;;17.74;41.12
42519;BME280;28147;47.520;18.920;2023-03-25T11:52:02;97763.69;;;17.89;40.84
42519;BME280;28147;47.520;18.920;2023-03-25T11:54:31;97741.28;;;18.21;40.15
42519;BME280;28147;47.520;18.920;2023-03-25T11:57:04;97747.84;;;18.29;39.26
42519;BME280;28147;47.520;18.920;2023-03-25T11:59:45;97750.66;;;18.23;39.53
42519;BME280;28147;47.520;18.920;2023-03-25T12:02:29;97749.66;;;18.61;39.11
42519;BME280;28147;47.520;18.920;2023-03-25T12:05:09;97737.09;;;18.42;38.79
42519;BME280;28147;47.520;18.920;2023-03-25T12:07:47;97743.88;;;18.40;39.14
42519;BME280;28147;47.520;18.920;2023-03-25T12:24:23;97713.63;;;18.43;38.28
42519;BME280;28147;47.520;18.920;2023-03-25T12:43:09;97682.56;;;18.73;38.27
42519;BME280;28147;47.520;18.920;2023-03-25T12:45:50;97686.25;;;19.00;36.69
42519;BME280;28147;47.520;18.920;2023-03-25T13:07:54;97689.06;;;18.72;36.19
42519;BME280;28147;47.520;18.920;2023-03-25T13:10:27;97682.75;;;18.99;36.22
42519;BME280;28147;47.520;18.920;2023-03-25T13:12:55;97672.75;;;18.63;37.37
42519;BME280;28147;47.520;18.920;2023-03-25T13:17:53;97683.16;;;18.56;38.10
42519;BME280;28147;47.520;18.920;2023-03-25T13:20:23;97679.47;;;18.52;38.04
42519;BME280;28147;47.520;18.920;2023-03-25T13:22:54;97684.38;;;18.50;37.89
42519;BME280;28147;47.520;18.920;2023-03-25T13:25:27;97687.00;;;18.41;37.83
42519;BME280;28147;47.520;18.920;2023-03-25T13:28:00;97686.13;;;18.18;37.87
42519;BME280;28147;47.520;18.920;2023-03-25T13:30:32;97686.16;;;18.41;37.10
42519;BME280;28147;47.520;18.920;2023-03-25T13:33:27;97679.31;;;18.85;38.03
42519;BME280;28147;47.520;18.920;2023-03-25T13:35:54;97679.47;;;19.02;36.75
42519;BME280;28147;47.520;18.920;2023-03-25T13:38:31;97685.69;;;18.89;36.16
42519;BME280;28147;47.520;18.920;2023-03-25T13:41:18;97669.09;;;18.95;35.57
42519;BME280;28147;47.520;18.920;2023-03-25T13:46:59;97683.13;;;18.70;36.75
42519;BME280;28147;47.520;18.920;2023-03-25T13:49:36;97681.69;;;18.36;36.51
42519;BME280;28147;47.520;18.920;2023-03-25T13:52:06;97670.44;;;18.34;36.54
42519;BME280;28147;47.520;18.920;2023-03-25T13:54:40;97689.09;;;18.17;37.02
42519;BME280;28147;47.520;18.920;2023-03-25T14:09:32;97689.19;;;18.26;37.01
42519;BME280;28147;47.520;18.920;2023-03-25T14:12:07;97690.59;;;18.09;37.22
42519;BME280;28147;47.520;18.920;2023-03-25T14:14:39;97688.97;;;18.22;36.71
42519;BME280;28147;47.520;18.920;2023-03-25T14:17:06;97683.38;;;18.32;36.53
42519;BME280;28147;47.520;18.920;2023-03-25T14:19:34;97683.50;;;18.27;36.89
42519;BME280;28147;47.520;18.920;2023-03-25T14:22:16;97685.19;;;18.37;36.82
42519;BME280;28147;47.520;18.920;2023-03-25T14:24:44;97678.81;;;18.05;37.07
42519;BME280;28147;47.520;18.920;2023-03-25T14:27:28;97676.03;;;17.96;37.22
42519;BME280;28147;47.520;18.920;2023-03-25T14:30:05;97679.81;;;17.95;36.84
42519;BME280;28147;47.520;18.920;2023-03-25T14:32:39;97684.75;;;17.74;37.45
42519;BME280;28147;47.520;18.920;2023-03-25T14:49:09;97666.31;;;17.54;36.61
42519;BME280;28147;47.520;18.920;2023-03-25T14:56:30;97664.19;;;17.51;35.79
42519;BME280;28147;47.520;18.920;2023-03-25T14:58:57;97672.44;;;17.41;36.09
42519;BME280;28147;47.520;18.920;2023-03-25T15:01:33;97676.44;;;17.57;36.62
42519;BME280;28147;47.520;18.920;2023-03-25T15:04:20;97674.22;;;17.78;36.38
42519;BME280;28147;47.520;18.920;2023-03-25T15:06:50;97679.44;;;17.56;35.84
42519;BME280;28147;47.520;18.920;2023-03-25T15:09:17;97677.34;;;17.52;36.33
42519;BME280;28147;47.520;18.920;2023-03-25T15:11:52;97677.56;;;17.56;35.51
42519;BME280;28147;47.520;18.920;2023-03-25T15:14:22;97691.94;;;17.33;36.08
42519;BME280;28147;47.520;18.920;2023-03-25T15:19:18;97674.66;;;17.39;36.06
42519;BME280;28147;47.520;18.920;2023-03-25T15:26:53;97693.47;;;17.39;37.01
42519;BME280;28147;47.520;18.920;2023-03-25T15:32:31;97690.53;;;17.54;35.98
42519;BME280;28147;47.520;18.920;2023-03-25T15:40:53;97684.72;;;17.61;35.77
42519;BME280;28147;47.520;18.920;2023-03-25T15:46:23;97679.75;;;17.54;35.96
42519;BME280;28147;47.520;18.920;2023-03-25T15:49:05;97678.34;;;17.10;35.80
42519;BME280;28147;47.520;18.920;2023-03-25T15:54:49;97682.41;;;17.08;35.88
42519;BME280;28147;47.520;18.920;2023-03-25T15:57:30;97668.53;;;16.82;36.03